Terminal Aerodrome Forecast
Issued by NWS

Home | Current Version | Previous Version | Text Only | Print | Product List | Glossary On
Versions: 1 2 3 4 5 6 7 8 9 10 11 12 13
330
FTUS45 KABQ 181728
TAFLVS
TAF
KLVS 181728Z 1818/1918 21009KT P6SM SCT200
     FM182000 21013G21KT P6SM BKN120
     FM190000 24009KT P6SM FEW250
     FM191000 01006KT P6SM SCT250=

USA.gov is the U.S. government's official web portal to all federal, state and local government web resources and services.